createdAt,value
2022-08-03T00:02:27.372Z,99.90
2022-08-03T00:05:28.370Z,99.90
2022-08-03T00:08:29.554Z,99.90
2022-08-03T00:11:30.215Z,99.90
2022-08-03T00:14:31.110Z,99.90
2022-08-03T00:17:53.462Z,99.90
2022-08-03T00:20:53.677Z,99.90
2022-08-03T00:23:54.600Z,99.90
2022-08-03T00:26:56.031Z,99.90
2022-08-03T00:30:00.249Z,99.90
2022-08-03T00:33:02.527Z,99.90
2022-08-03T00:36:04.169Z,99.90
2022-08-03T00:39:05.162Z,99.90
2022-08-03T00:42:06.443Z,99.90
2022-08-03T00:45:07.832Z,99.90
2022-08-03T00:48:30.151Z,99.90
2022-08-03T00:51:34.577Z,99.90
2022-08-03T00:54:38.051Z,99.90
2022-08-03T00:57:39.689Z,99.90
2022-08-03T01:00:41.367Z,99.90
2022-08-03T01:03:42.731Z,99.90
2022-08-03T01:07:18.001Z,99.90
2022-08-03T01:10:32.581Z,99.90
2022-08-03T01:14:18.628Z,99.90
2022-08-03T01:17:38.058Z,99.90
2022-08-03T01:20:47.325Z,99.90
2022-08-03T01:24:44.772Z,99.90
2022-08-03T01:28:16.484Z,99.90
2022-08-03T01:31:24.118Z,99.90
2022-08-03T01:34:34.412Z,99.90
2022-08-03T01:37:56.166Z,99.90
2022-08-03T01:41:01.800Z,99.90
2022-08-03T01:44:29.399Z,99.90
2022-08-03T01:47:32.920Z,99.90
2022-08-03T01:50:35.472Z,99.90
2022-08-03T01:53:42.986Z,99.90
2022-08-03T01:56:47.556Z,99.90
2022-08-03T01:59:51.719Z,99.90
2022-08-03T02:02:55.840Z,99.90
2022-08-03T02:06:56.840Z,99.90
2022-08-03T02:09:23.368Z,99.90
2022-08-03T02:12:27.114Z,99.90
2022-08-03T02:15:32.869Z,99.90
2022-08-03T02:18:35.400Z,99.90
2022-08-03T02:21:57.430Z,99.90
2022-08-03T02:24:59.015Z,99.90
2022-08-03T02:28:08.352Z,99.90
2022-08-03T02:31:17.093Z,99.90
2022-08-03T02:34:22.469Z,99.90
2022-08-03T02:37:31.157Z,99.90
2022-08-03T02:40:33.558Z,99.90
2022-08-03T02:43:56.756Z,99.90
2022-08-03T02:47:06.989Z,99.90
2022-08-03T02:50:12.564Z,99.90
2022-08-03T02:53:17.662Z,99.90
2022-08-03T02:56:19.828Z,99.90
2022-08-03T02:59:23.508Z,99.90
2022-08-03T03:02:25.726Z,99.90
2022-08-03T03:05:53.117Z,99.90
2022-08-03T03:08:49.463Z,99.90
2022-08-03T03:11:53.509Z,99.90
2022-08-03T03:14:54.522Z,99.90
2022-08-03T03:17:57.119Z,99.90
2022-08-03T03:21:01.095Z,99.90
2022-08-03T03:24:02.929Z,99.90
2022-08-03T03:27:05.247Z,99.90
2022-08-03T03:30:07.289Z,99.90
2022-08-03T03:33:08.737Z,99.90
2022-08-03T03:36:10.909Z,99.90
2022-08-03T03:39:15.628Z,99.90
2022-08-03T03:42:17.549Z,99.90
2022-08-03T03:45:20.833Z,99.90
2022-08-03T03:48:22.370Z,99.90
2022-08-03T03:51:23.091Z,99.90
2022-08-03T03:54:25.530Z,99.90
2022-08-03T03:57:30.869Z,99.90
2022-08-03T04:00:32.274Z,99.90
2022-08-03T04:03:33.628Z,99.90
2022-08-03T04:06:53.450Z,99.90
2022-08-03T04:10:15.602Z,99.90
2022-08-03T04:13:18.486Z,99.90
2022-08-03T04:16:25.543Z,99.90
2022-08-03T04:19:38.718Z,99.90
2022-08-03T04:22:42.226Z,99.90
2022-08-03T04:25:46.131Z,99.90
2022-08-03T04:28:50.600Z,99.90
2022-08-03T04:31:56.001Z,99.90
2022-08-03T04:34:57.481Z,99.90
2022-08-03T04:38:07.546Z,99.90
2022-08-03T04:41:10.542Z,99.90
2022-08-03T04:44:14.519Z,99.90
2022-08-03T04:47:16.654Z,99.90
2022-08-03T04:50:21.563Z,99.90
2022-08-03T04:53:38.112Z,99.90
2022-08-03T04:56:44.336Z,99.90
2022-08-03T04:59:45.505Z,99.90
2022-08-03T05:02:46.201Z,99.90
2022-08-03T05:05:49.860Z,99.90
2022-08-03T05:08:52.132Z,99.90
2022-08-03T05:11:53.724Z,99.90
2022-08-03T05:14:56.023Z,99.90
2022-08-03T05:17:57.068Z,99.90
2022-08-03T05:20:58.588Z,99.90
2022-08-03T05:23:59.669Z,99.90
2022-08-03T05:27:00.711Z,99.90
2022-08-03T05:30:30.501Z,99.90
2022-08-03T05:33:23.631Z,99.90
2022-08-03T05:36:24.947Z,99.90
2022-08-03T05:39:26.017Z,99.90
2022-08-03T05:42:26.938Z,99.90
2022-08-03T05:45:29.872Z,99.90
2022-08-03T05:48:31.218Z,99.90
2022-08-03T05:51:32.185Z,99.90
2022-08-03T05:54:55.580Z,99.90
2022-08-03T05:57:56.746Z,99.90
2022-08-03T06:00:58.228Z,99.90
2022-08-03T06:03:59.938Z,99.90
2022-08-03T06:07:00.785Z,99.90
2022-08-03T06:10:35.419Z,99.90
2022-08-03T06:13:24.124Z,99.90
2022-08-03T06:16:24.932Z,99.90
2022-08-03T06:19:27.617Z,99.90
2022-08-03T06:22:28.479Z,99.90
2022-08-03T06:25:30.929Z,99.90
2022-08-03T06:28:53.099Z,99.90
2022-08-03T06:31:53.141Z,99.90
2022-08-03T06:34:54.487Z,99.90
2022-08-03T06:37:55.303Z,99.90
2022-08-03T06:40:56.740Z,99.90
2022-08-03T06:44:03.532Z,99.90
2022-08-03T06:47:05.625Z,99.90
2022-08-03T06:50:16.136Z,99.90
2022-08-03T06:53:21.186Z,99.90
2022-08-03T06:56:22.706Z,99.90
2022-08-03T07:00:08.706Z,99.90
2022-08-03T07:02:44.330Z,99.90
2022-08-03T07:05:48.275Z,99.90
2022-08-03T07:08:52.305Z,99.90
2022-08-03T07:11:55.652Z,99.90
2022-08-03T07:15:01.313Z,99.90
2022-08-03T07:18:04.131Z,99.90
2022-08-03T07:21:05.610Z,99.90
2022-08-03T07:24:07.089Z,99.90
2022-08-03T07:27:11.641Z,99.90
2022-08-03T07:30:17.059Z,99.90
2022-08-03T07:33:18.071Z,99.90
2022-08-03T07:36:19.518Z,99.90
2022-08-03T07:39:20.757Z,99.90
2022-08-03T07:42:21.375Z,99.90
2022-08-03T07:45:23.863Z,99.90
2022-08-03T07:48:25.118Z,99.90
2022-08-03T07:51:25.882Z,99.90
2022-08-03T07:54:27.221Z,99.90
2022-08-03T07:57:28.146Z,99.90
2022-08-03T08:00:29.860Z,99.90
2022-08-03T08:03:41.131Z,99.90
2022-08-03T08:06:51.962Z,99.90
2022-08-03T08:09:53.307Z,99.90
2022-08-03T08:12:55.575Z,99.90
2022-08-03T08:15:56.691Z,99.90
2022-08-03T08:18:57.511Z,99.50
2022-08-03T08:22:02.857Z,99.40
2022-08-03T08:25:04.410Z,99.20
2022-08-03T08:28:30.841Z,98.10
2022-08-03T08:31:26.638Z,97.40
2022-08-03T08:34:27.836Z,97.50
2022-08-03T08:37:29.256Z,97.80
2022-08-03T08:40:30.661Z,98.90
2022-08-03T08:43:31.732Z,97.70
2022-08-03T08:46:34.294Z,96.80
2022-08-03T08:49:38.954Z,96.50
2022-08-03T08:52:47.836Z,95.50
2022-08-03T08:55:56.594Z,94.30
2022-08-03T08:59:02.904Z,94.60
2022-08-03T09:02:04.930Z,93.50
2022-08-03T09:05:07.630Z,92.30
2022-08-03T09:08:09.346Z,91.90
2022-08-03T09:11:12.005Z,91.40
2022-08-03T09:14:35.322Z,89.30
2022-08-03T09:17:41.396Z,89.00
2022-08-03T09:20:42.796Z,88.40
2022-08-03T09:24:01.909Z,87.50
2022-08-03T09:27:12.810Z,88.10
2022-08-03T09:30:34.788Z,88.10
2022-08-03T09:33:48.881Z,85.30
2022-08-03T09:36:51.241Z,85.00
2022-08-03T09:39:52.408Z,84.90
2022-08-03T09:42:58.281Z,84.00
2022-08-03T09:46:07.633Z,84.30
2022-08-03T09:49:13.227Z,81.20
2022-08-03T09:52:37.891Z,80.00
2022-08-03T09:56:34.915Z,81.30
2022-08-03T09:59:23.522Z,79.30
2022-08-03T10:02:27.353Z,77.60
2022-08-03T10:05:33.338Z,76.60
2022-08-03T10:08:34.578Z,74.80
2022-08-03T10:11:41.820Z,75.10
2022-08-03T10:14:45.797Z,73.30
2022-08-03T10:17:46.711Z,72.80
2022-08-03T10:20:54.046Z,69.70
2022-08-03T10:23:56.686Z,72.90
2022-08-03T10:27:07.304Z,70.90
2022-08-03T10:30:11.748Z,70.30
2022-08-03T10:33:50.042Z,65.50
2022-08-03T10:36:52.061Z,68.50
2022-08-03T10:39:54.132Z,65.60
2022-08-03T10:43:03.734Z,64.40
2022-08-03T10:46:08.736Z,64.00
2022-08-03T10:49:34.846Z,63.30
2022-08-03T10:52:41.012Z,62.70
2022-08-03T10:56:05.579Z,62.00
2022-08-03T10:59:06.747Z,62.80
2022-08-03T11:02:10.229Z,62.60
2022-08-03T11:05:36.691Z,62.00
2022-08-03T11:08:37.659Z,60.60
2022-08-03T11:11:43.606Z,59.00
2022-08-03T11:14:49.761Z,59.20
2022-08-03T11:18:13.542Z,59.00
2022-08-03T11:21:14.933Z,58.90
2022-08-03T11:24:40.967Z,59.00
2022-08-03T11:27:42.149Z,57.70
2022-08-03T11:30:42.983Z,55.40
2022-08-03T11:34:07.526Z,54.00
2022-08-03T11:37:29.952Z,54.30
2022-08-03T11:40:42.936Z,54.70
2022-08-03T11:43:45.522Z,55.40
2022-08-03T11:46:47.694Z,53.70
2022-08-03T11:49:50.852Z,53.10
2022-08-03T11:52:51.980Z,53.00
2022-08-03T11:55:54.110Z,52.40
2022-08-03T11:59:20.215Z,52.40
2022-08-03T12:02:19.444Z,50.80
2022-08-03T12:05:20.459Z,50.60
2022-08-03T12:08:27.388Z,51.00
2022-08-03T12:11:30.774Z,49.40
2022-08-03T12:14:51.094Z,50.40
2022-08-03T12:17:57.625Z,48.10
2022-08-03T12:21:10.525Z,48.40
2022-08-03T12:24:11.500Z,47.10
2022-08-03T12:27:12.898Z,48.30
2022-08-03T12:30:14.476Z,47.80
2022-08-03T12:33:20.312Z,45.50
2022-08-03T12:36:21.298Z,45.90
2022-08-03T12:39:30.849Z,45.90
2022-08-03T12:42:38.464Z,44.10
2022-08-03T12:45:39.940Z,44.20
2022-08-03T12:49:15.636Z,44.50
2022-08-03T12:52:19.131Z,43.30
2022-08-03T12:55:22.732Z,43.70
2022-08-03T12:58:34.541Z,43.10
2022-08-03T13:01:48.997Z,44.20
2022-08-03T13:04:57.070Z,47.10
2022-08-03T13:07:58.749Z,42.20
2022-08-03T13:10:59.645Z,41.70
2022-08-03T13:14:00.598Z,42.10
2022-08-03T13:17:01.522Z,42.40
2022-08-03T13:20:02.519Z,41.40
2022-08-03T13:23:03.624Z,42.70
2022-08-03T13:26:04.573Z,40.40
2022-08-03T13:29:06.417Z,42.10
2022-08-03T13:32:07.991Z,42.20
2022-08-03T13:35:10.136Z,42.60
2022-08-03T13:38:11.474Z,44.50
2022-08-03T13:41:15.405Z,43.70
2022-08-03T13:44:29.375Z,41.50
2022-08-03T13:47:31.091Z,40.60
2022-08-03T13:50:32.422Z,41.50
2022-08-03T13:53:33.583Z,41.60
2022-08-03T13:56:34.828Z,40.50
2022-08-03T13:59:35.651Z,41.50
2022-08-03T14:02:37.258Z,41.10
2022-08-03T14:05:38.947Z,41.00
2022-08-03T14:08:40.082Z,40.20
2022-08-03T14:12:04.025Z,40.20
2022-08-03T14:15:04.450Z,41.60
2022-08-03T14:18:12.790Z,41.20
2022-08-03T14:21:17.285Z,39.80
2022-08-03T14:24:18.275Z,41.10
2022-08-03T14:27:19.616Z,40.90
2022-08-03T14:30:20.909Z,40.50
2022-08-03T14:33:23.220Z,39.60
2022-08-03T14:36:24.510Z,38.50
2022-08-03T14:39:26.183Z,38.50
2022-08-03T14:42:27.207Z,39.40
2022-08-03T14:45:28.151Z,39.50
2022-08-03T14:50:31.790Z,39.70
2022-08-03T14:51:51.646Z,39.80
2022-08-03T14:54:54.547Z,39.90
2022-08-03T14:57:55.486Z,40.30
2022-08-03T15:00:57.017Z,40.90
2022-08-03T15:03:58.385Z,40.10
2022-08-03T15:06:59.796Z,40.80
2022-08-03T15:10:00.470Z,40.50
2022-08-03T15:13:03.772Z,40.00
2022-08-03T15:16:05.188Z,39.60
2022-08-03T15:20:03.978Z,38.70
2022-08-03T15:22:34.829Z,40.20
2022-08-03T15:26:28.841Z,40.50
2022-08-03T15:28:58.303Z,39.10
2022-08-03T15:31:59.703Z,41.40
2022-08-03T15:35:01.845Z,40.30
2022-08-03T15:38:08.710Z,40.20
2022-08-03T15:41:13.735Z,40.00
2022-08-03T15:44:20.816Z,39.30
2022-08-03T15:47:22.151Z,40.20
2022-08-03T15:50:23.286Z,39.70
2022-08-03T15:53:24.139Z,39.20
2022-08-03T15:56:25.484Z,41.70
2022-08-03T15:59:28.442Z,40.00
2022-08-03T16:02:30.610Z,42.00
2022-08-03T16:05:32.371Z,41.70
2022-08-03T16:08:34.298Z,42.40
2022-08-03T16:11:35.938Z,41.60
2022-08-03T16:14:46.886Z,42.30
2022-08-03T16:17:53.147Z,42.50
2022-08-03T16:20:54.380Z,43.60
2022-08-03T16:23:57.169Z,44.30
2022-08-03T16:26:58.468Z,42.50
2022-08-03T16:30:02.083Z,43.90
2022-08-03T16:33:03.164Z,45.30
2022-08-03T16:36:04.604Z,43.70
2022-08-03T16:39:05.651Z,43.80
2022-08-03T16:42:07.070Z,43.80
2022-08-03T16:45:09.237Z,43.90
2022-08-03T16:48:11.063Z,44.00
2022-08-03T16:51:12.073Z,43.80
2022-08-03T16:54:14.008Z,45.50
2022-08-03T16:57:14.971Z,45.80
2022-08-03T17:00:34.208Z,46.20
2022-08-03T17:03:42.645Z,47.00
2022-08-03T17:07:01.044Z,47.50
2022-08-03T17:10:02.143Z,46.10
2022-08-03T17:13:03.284Z,47.70
2022-08-03T17:16:09.911Z,49.10
2022-08-03T17:19:13.854Z,48.80
2022-08-03T17:22:20.374Z,47.20
2022-08-03T17:26:01.622Z,48.60
2022-08-03T17:28:57.447Z,49.70
2022-08-03T17:32:06.526Z,49.50
2022-08-03T17:35:11.277Z,49.60
2022-08-03T17:38:16.611Z,50.00
2022-08-03T17:41:23.425Z,50.00
2022-08-03T17:44:31.124Z,50.80
2022-08-03T17:47:43.641Z,50.80
2022-08-03T17:50:59.611Z,53.40
2022-08-03T17:54:21.887Z,56.00
2022-08-03T17:58:08.288Z,57.10
2022-08-03T18:02:03.608Z,58.50
2022-08-03T18:05:16.440Z,58.30
2022-08-03T18:08:28.379Z,59.70
2022-08-03T18:11:35.521Z,62.50
2022-08-03T18:15:07.820Z,61.80
2022-08-03T18:18:16.049Z,63.70
2022-08-03T18:22:03.087Z,64.00
2022-08-03T18:24:54.041Z,63.50
2022-08-03T18:27:56.603Z,64.10
2022-08-03T18:31:04.293Z,65.20
2022-08-03T18:34:19.210Z,66.70
2022-08-03T18:37:32.552Z,68.30
2022-08-03T18:40:53.339Z,69.00
2022-08-03T18:44:08.866Z,70.90
2022-08-03T18:47:50.786Z,69.30
2022-08-03T18:51:10.994Z,69.40
2022-08-03T18:54:57.807Z,69.10
2022-08-03T18:58:33.245Z,70.00
2022-08-03T19:02:00.947Z,72.40
2022-08-03T19:05:09.653Z,70.40
2022-08-03T19:08:20.446Z,68.70
2022-08-03T19:12:14.065Z,70.00
2022-08-03T19:15:15.799Z,70.30
2022-08-03T19:18:18.628Z,70.50
2022-08-03T19:21:19.833Z,71.50
2022-08-03T19:24:26.454Z,73.00
2022-08-03T19:27:31.106Z,71.20
2022-08-03T19:30:40.503Z,73.00
2022-08-03T19:33:57.308Z,74.20
2022-08-03T19:36:59.740Z,73.80
2022-08-03T19:40:01.247Z,73.60
2022-08-03T19:43:20.649Z,73.60
2022-08-03T19:50:04.827Z,74.20
2022-08-03T19:53:11.665Z,73.80
2022-08-03T19:59:46.409Z,76.20
2022-08-03T20:02:51.786Z,76.50
2022-08-03T20:05:54.136Z,75.90
2022-08-03T20:08:58.695Z,76.30
2022-08-03T20:12:00.300Z,77.00
2022-08-03T20:15:01.476Z,78.00
2022-08-03T20:18:02.290Z,77.70
2022-08-03T20:21:15.289Z,78.70
2022-08-03T20:24:28.313Z,78.70
2022-08-03T20:28:07.949Z,78.40
2022-08-03T20:31:02.021Z,79.10
2022-08-03T20:34:03.549Z,79.80
2022-08-03T20:37:05.047Z,79.80
2022-08-03T20:40:11.018Z,79.70
2022-08-03T20:43:11.952Z,80.10
2022-08-03T20:46:29.544Z,80.70
2022-08-03T20:49:46.233Z,81.30
2022-08-03T20:52:57.710Z,80.90
2022-08-03T20:56:02.261Z,81.10
2022-08-03T20:59:07.195Z,80.90
2022-08-03T21:02:19.185Z,80.70
2022-08-03T21:05:21.146Z,81.00
2022-08-03T21:08:37.627Z,80.30
2022-08-03T21:11:54.237Z,80.50
2022-08-03T21:13:02.898Z,73.70
2022-08-03T21:13:03.269Z,74.90
2022-08-03T21:15:06.010Z,80.90
2022-08-03T21:18:13.942Z,82.20
2022-08-03T21:21:19.202Z,85.80
2022-08-03T21:24:25.341Z,86.50
2022-08-03T21:27:30.380Z,86.20
2022-08-03T21:30:31.576Z,88.10
2022-08-03T21:33:33.940Z,91.20
2022-08-03T21:36:37.863Z,91.80
2022-08-03T21:39:50.899Z,90.60
2022-08-03T21:42:51.970Z,89.20
2022-08-03T21:45:59.111Z,90.70
2022-08-03T21:50:05.167Z,89.60
2022-08-03T21:52:26.220Z,87.60
2022-08-03T21:55:29.041Z,88.40
2022-08-03T21:58:38.381Z,89.30
2022-08-03T22:01:42.608Z,88.40
2022-08-03T22:04:53.497Z,89.10
2022-08-03T22:07:57.178Z,89.40
2022-08-03T22:10:58.410Z,88.40
2022-08-03T22:14:06.000Z,89.20
2022-08-03T22:17:07.376Z,89.90
2022-08-03T22:20:14.684Z,91.80
2022-08-03T22:23:21.168Z,93.70
2022-08-03T22:26:34.808Z,95.00
2022-08-03T22:29:40.098Z,95.00
2022-08-03T22:32:42.755Z,97.90
2022-08-03T22:35:49.784Z,98.60
2022-08-03T22:38:53.165Z,99.70
2022-08-03T22:41:54.925Z,99.90
2022-08-03T22:44:56.328Z,99.90
2022-08-03T22:47:58.545Z,99.90
2022-08-03T22:51:00.544Z,99.90
2022-08-03T22:54:05.040Z,99.90
2022-08-03T22:57:07.985Z,99.90
2022-08-03T23:00:15.806Z,99.90
2022-08-03T23:03:23.513Z,99.90
2022-08-03T23:06:30.847Z,99.90
2022-08-03T23:09:34.073Z,99.90
2022-08-03T23:12:39.244Z,99.90
2022-08-03T23:15:40.502Z,99.90
2022-08-03T23:18:47.971Z,99.90
2022-08-03T23:21:53.551Z,99.90
2022-08-03T23:25:05.598Z,99.90
2022-08-03T23:28:09.355Z,99.90
2022-08-03T23:31:13.619Z,99.90
2022-08-03T23:34:35.352Z,99.90
2022-08-03T23:38:03.992Z,99.90
2022-08-03T23:41:03.602Z,99.90
2022-08-03T23:44:05.278Z,99.90
2022-08-03T23:47:06.326Z,99.90
2022-08-03T23:50:07.819Z,99.90
2022-08-03T23:53:27.677Z,99.90
2022-08-03T23:57:25.036Z,99.90
